Terminal Aerodrome Forecast
Issued by NWS Louisville, KY

Home | Current Version | Previous Version | Text Only | Print | Product List | Glossary On
Versions: 1 2 3 4 5 6 7 8 9 10 11 12 13 14 15 16
000
FTUS43 KLMK 021700
TAFLEX
TAF
KLEX 021729Z 0218/0318 02006KT P6SM SCT250
     FM030300 08006KT P6SM BKN060
     FM030900 09005KT P6SM BKN025
     FM031300 15006KT 3SM -RA BKN010=

USA.gov is the U.S. government's official web portal to all federal, state and local government web resources and services.